Terminal Aerodrome Forecast
Issued by NWS Twin Cities, MN

Home | Current Version | Previous Version | Graphics & Text | Print | Product List | Glossary On
Versions: 1 2 3 4 5 6 7 8 9 10 11 12 13 14 15 16 17 18 19 20
000
FTUS43 KMPX 281100
TAFSTC
TAF
KSTC 281120Z 2812/2912 12005KT P6SM FEW040 BKN090
     FM282200 12008KT P6SM BKN025 OVC150
     FM290000 13009G14KT 6SM -SHRA BKN020 OVC040
     FM290400 11008KT 6SM BR SCT007 OVC012
     FM290700 12008KT 4SM BR BKN006 OVC010=

USA.gov is the U.S. government's official web portal to all federal, state and local government web resources and services.